sensor_id;sensor_type;location;lat;lon;timestamp;temperature;humidity
51719;DHT22;37795;53.236;5.704;2023-04-25T00:00:46;7.90;69.10
51719;DHT22;37795;53.236;5.704;2023-04-25T00:03:12;7.90;69.30
51719;DHT22;37795;53.236;5.704;2023-04-25T00:05:37;7.90;69.60
51719;DHT22;37795;53.236;5.704;2023-04-25T00:08:04;7.80;69.30
51719;DHT22;37795;53.236;5.704;2023-04-25T00:10:30;7.90;69.50
51719;DHT22;37795;53.236;5.704;2023-04-25T00:12:56;7.90;69.60
51719;DHT22;37795;53.236;5.704;2023-04-25T00:15:23;7.90;69.60
51719;DHT22;37795;53.236;5.704;2023-04-25T00:17:49;7.80;70.00
51719;DHT22;37795;53.236;5.704;2023-04-25T00:20:18;7.80;69.60
51719;DHT22;37795;53.236;5.704;2023-04-25T00:22:44;7.80;69.20
51719;DHT22;37795;53.236;5.704;2023-04-25T00:25:09;7.70;68.70
51719;DHT22;37795;53.236;5.704;2023-04-25T00:27:35;7.70;68.90
51719;DHT22;37795;53.236;5.704;2023-04-25T00:30:01;7.70;68.60
51719;DHT22;37795;53.236;5.704;2023-04-25T00:32:27;7.70;68.00
51719;DHT22;37795;53.236;5.704;2023-04-25T00:34:52;7.70;67.90
51719;DHT22;37795;53.236;5.704;2023-04-25T00:37:18;7.70;67.60
51719;DHT22;37795;53.236;5.704;2023-04-25T00:39:45;7.70;67.70
51719;DHT22;37795;53.236;5.704;2023-04-25T00:42:11;7.70;67.80
51719;DHT22;37795;53.236;5.704;2023-04-25T00:44:37;7.70;67.80
51719;DHT22;37795;53.236;5.704;2023-04-25T00:47:03;7.70;68.10
51719;DHT22;37795;53.236;5.704;2023-04-25T00:49:28;7.70;67.50
51719;DHT22;37795;53.236;5.704;2023-04-25T00:51:54;7.70;67.60
51719;DHT22;37795;53.236;5.704;2023-04-25T00:54:20;7.70;67.80
51719;DHT22;37795;53.236;5.704;2023-04-25T00:56:46;7.70;68.80
51719;DHT22;37795;53.236;5.704;2023-04-25T00:59:12;7.70;69.90
51719;DHT22;37795;53.236;5.704;2023-04-25T01:01:39;7.70;70.10
51719;DHT22;37795;53.236;5.704;2023-04-25T01:04:04;7.70;69.80
51719;DHT22;37795;53.236;5.704;2023-04-25T01:06:31;7.70;69.50
51719;DHT22;37795;53.236;5.704;2023-04-25T01:08:57;7.60;68.80
51719;DHT22;37795;53.236;5.704;2023-04-25T01:11:24;7.60;68.60
51719;DHT22;37795;53.236;5.704;2023-04-25T01:13:50;7.60;68.40
51719;DHT22;37795;53.236;5.704;2023-04-25T01:16:16;7.50;68.50
51719;DHT22;37795;53.236;5.704;2023-04-25T01:18:42;7.50;68.40
51719;DHT22;37795;53.236;5.704;2023-04-25T01:21:11;7.40;68.60
51719;DHT22;37795;53.236;5.704;2023-04-25T01:23:40;7.40;68.60
51719;DHT22;37795;53.236;5.704;2023-04-25T01:26:10;7.40;68.40
51719;DHT22;37795;53.236;5.704;2023-04-25T01:28:36;7.30;68.50
51719;DHT22;37795;53.236;5.704;2023-04-25T01:31:03;7.20;68.40
51719;DHT22;37795;53.236;5.704;2023-04-25T01:33:29;7.20;68.80
51719;DHT22;37795;53.236;5.704;2023-04-25T01:35:55;7.20;68.80
51719;DHT22;37795;53.236;5.704;2023-04-25T01:38:21;7.20;68.80
51719;DHT22;37795;53.236;5.704;2023-04-25T01:40:46;7.20;69.20
51719;DHT22;37795;53.236;5.704;2023-04-25T01:43:14;7.20;69.10
51719;DHT22;37795;53.236;5.704;2023-04-25T01:45:43;7.20;69.20
51719;DHT22;37795;53.236;5.704;2023-04-25T01:48:13;7.20;69.30
51719;DHT22;37795;53.236;5.704;2023-04-25T01:50:40;7.20;69.50
51719;DHT22;37795;53.236;5.704;2023-04-25T01:53:06;7.20;69.30
51719;DHT22;37795;53.236;5.704;2023-04-25T01:55:31;7.10;70.40
51719;DHT22;37795;53.236;5.704;2023-04-25T01:57:57;7.10;68.90
51719;DHT22;37795;53.236;5.704;2023-04-25T02:00:24;7.10;67.80
51719;DHT22;37795;53.236;5.704;2023-04-25T02:02:50;7.00;68.70
51719;DHT22;37795;53.236;5.704;2023-04-25T02:05:16;7.00;69.00
51719;DHT22;37795;53.236;5.704;2023-04-25T02:07:42;6.90;69.10
51719;DHT22;37795;53.236;5.704;2023-04-25T02:10:09;6.90;69.70
51719;DHT22;37795;53.236;5.704;2023-04-25T02:12:35;6.90;70.20
51719;DHT22;37795;53.236;5.704;2023-04-25T02:15:01;6.90;70.70
51719;DHT22;37795;53.236;5.704;2023-04-25T02:17:27;6.90;70.70
51719;DHT22;37795;53.236;5.704;2023-04-25T02:19:52;6.90;71.10
51719;DHT22;37795;53.236;5.704;2023-04-25T02:22:18;6.90;70.90
51719;DHT22;37795;53.236;5.704;2023-04-25T02:24:45;7.00;70.30
51719;DHT22;37795;53.236;5.704;2023-04-25T02:27:11;7.00;69.90
51719;DHT22;37795;53.236;5.704;2023-04-25T02:29:38;7.00;69.60
51719;DHT22;37795;53.236;5.704;2023-04-25T02:32:04;6.90;69.60
51719;DHT22;37795;53.236;5.704;2023-04-25T02:34:29;6.90;69.70
51719;DHT22;37795;53.236;5.704;2023-04-25T02:36:55;6.90;69.90
51719;DHT22;37795;53.236;5.704;2023-04-25T02:39:21;6.90;70.00
51719;DHT22;37795;53.236;5.704;2023-04-25T02:41:47;6.90;70.00
51719;DHT22;37795;53.236;5.704;2023-04-25T02:44:13;6.90;70.00
51719;DHT22;37795;53.236;5.704;2023-04-25T02:46:39;6.90;70.30
51719;DHT22;37795;53.236;5.704;2023-04-25T02:49:04;7.00;70.40
51719;DHT22;37795;53.236;5.704;2023-04-25T02:51:30;7.00;70.00
51719;DHT22;37795;53.236;5.704;2023-04-25T02:53:56;7.10;69.80
51719;DHT22;37795;53.236;5.704;2023-04-25T02:56:22;7.10;69.10
51719;DHT22;37795;53.236;5.704;2023-04-25T02:58:47;7.10;68.50
51719;DHT22;37795;53.236;5.704;2023-04-25T03:01:13;7.20;68.00
51719;DHT22;37795;53.236;5.704;2023-04-25T03:03:39;7.20;67.50
51719;DHT22;37795;53.236;5.704;2023-04-25T03:06:05;7.20;67.40
51719;DHT22;37795;53.236;5.704;2023-04-25T03:08:31;7.20;67.30
51719;DHT22;37795;53.236;5.704;2023-04-25T03:10:58;7.20;66.90
51719;DHT22;37795;53.236;5.704;2023-04-25T03:13:24;7.20;67.20
51719;DHT22;37795;53.236;5.704;2023-04-25T03:15:50;7.10;67.00
51719;DHT22;37795;53.236;5.704;2023-04-25T03:18:16;7.10;66.90
51719;DHT22;37795;53.236;5.704;2023-04-25T03:20:41;7.00;66.70
51719;DHT22;37795;53.236;5.704;2023-04-25T03:23:08;6.90;66.80
51719;DHT22;37795;53.236;5.704;2023-04-25T03:25:33;6.90;66.70
51719;DHT22;37795;53.236;5.704;2023-04-25T03:27:59;6.80;66.80
51719;DHT22;37795;53.236;5.704;2023-04-25T03:30:25;6.80;66.90
51719;DHT22;37795;53.236;5.704;2023-04-25T03:32:51;6.90;67.10
51719;DHT22;37795;53.236;5.704;2023-04-25T03:35:16;6.90;67.40
51719;DHT22;37795;53.236;5.704;2023-04-25T03:37:42;6.90;67.70
51719;DHT22;37795;53.236;5.704;2023-04-25T03:40:11;6.90;67.80
51719;DHT22;37795;53.236;5.704;2023-04-25T03:42:37;6.90;68.10
51719;DHT22;37795;53.236;5.704;2023-04-25T03:45:03;6.80;67.60
51719;DHT22;37795;53.236;5.704;2023-04-25T03:47:29;6.90;67.10
51719;DHT22;37795;53.236;5.704;2023-04-25T03:49:54;6.80;66.60
51719;DHT22;37795;53.236;5.704;2023-04-25T03:52:20;6.70;66.40
51719;DHT22;37795;53.236;5.704;2023-04-25T03:54:46;6.70;66.50
51719;DHT22;37795;53.236;5.704;2023-04-25T03:57:11;6.70;66.70
51719;DHT22;37795;53.236;5.704;2023-04-25T03:59:37;6.70;67.00
51719;DHT22;37795;53.236;5.704;2023-04-25T04:02:03;6.60;66.80
51719;DHT22;37795;53.236;5.704;2023-04-25T04:04:28;6.70;66.60
51719;DHT22;37795;53.236;5.704;2023-04-25T04:06:54;6.70;66.70
51719;DHT22;37795;53.236;5.704;2023-04-25T04:09:20;6.80;66.70
51719;DHT22;37795;53.236;5.704;2023-04-25T04:11:46;6.80;66.90
51719;DHT22;37795;53.236;5.704;2023-04-25T04:14:12;6.80;67.20
51719;DHT22;37795;53.236;5.704;2023-04-25T04:16:37;6.80;67.00
51719;DHT22;37795;53.236;5.704;2023-04-25T04:19:03;6.80;66.30
51719;DHT22;37795;53.236;5.704;2023-04-25T04:21:29;6.80;67.20
51719;DHT22;37795;53.236;5.704;2023-04-25T04:23:55;6.70;67.50
51719;DHT22;37795;53.236;5.704;2023-04-25T04:26:23;6.70;68.00
51719;DHT22;37795;53.236;5.704;2023-04-25T04:28:49;6.70;68.30
51719;DHT22;37795;53.236;5.704;2023-04-25T04:31:20;6.70;68.60
51719;DHT22;37795;53.236;5.704;2023-04-25T04:33:47;6.70;69.20
51719;DHT22;37795;53.236;5.704;2023-04-25T04:36:13;6.70;69.10
51719;DHT22;37795;53.236;5.704;2023-04-25T04:38:39;6.70;70.20
51719;DHT22;37795;53.236;5.704;2023-04-25T04:41:06;6.60;69.80
51719;DHT22;37795;53.236;5.704;2023-04-25T04:43:32;6.60;70.00
51719;DHT22;37795;53.236;5.704;2023-04-25T04:46:00;6.60;70.10
51719;DHT22;37795;53.236;5.704;2023-04-25T04:48:26;6.60;70.30
51719;DHT22;37795;53.236;5.704;2023-04-25T04:50:52;6.60;70.20
51719;DHT22;37795;53.236;5.704;2023-04-25T04:53:18;6.60;70.80
51719;DHT22;37795;53.236;5.704;2023-04-25T04:55:44;6.50;71.20
51719;DHT22;37795;53.236;5.704;2023-04-25T04:58:09;6.50;71.30
51719;DHT22;37795;53.236;5.704;2023-04-25T05:00:35;6.50;71.20
51719;DHT22;37795;53.236;5.704;2023-04-25T05:03:01;6.50;71.20
51719;DHT22;37795;53.236;5.704;2023-04-25T05:05:26;6.50;70.90
51719;DHT22;37795;53.236;5.704;2023-04-25T05:07:52;6.40;70.80
51719;DHT22;37795;53.236;5.704;2023-04-25T05:10:19;6.30;70.90
51719;DHT22;37795;53.236;5.704;2023-04-25T05:12:45;6.30;70.80
51719;DHT22;37795;53.236;5.704;2023-04-25T05:15:11;6.30;70.80
51719;DHT22;37795;53.236;5.704;2023-04-25T05:17:37;6.30;71.00
51719;DHT22;37795;53.236;5.704;2023-04-25T05:20:05;6.40;71.20
51719;DHT22;37795;53.236;5.704;2023-04-25T05:22:31;6.50;71.90
51719;DHT22;37795;53.236;5.704;2023-04-25T05:24:56;6.70;72.00
51719;DHT22;37795;53.236;5.704;2023-04-25T05:27:22;6.80;70.60
51719;DHT22;37795;53.236;5.704;2023-04-25T05:29:48;6.90;70.40
51719;DHT22;37795;53.236;5.704;2023-04-25T05:32:14;6.90;69.40
51719;DHT22;37795;53.236;5.704;2023-04-25T05:34:39;6.90;69.10
51719;DHT22;37795;53.236;5.704;2023-04-25T05:37:05;6.90;68.50
51719;DHT22;37795;53.236;5.704;2023-04-25T05:39:31;6.90;68.40
51719;DHT22;37795;53.236;5.704;2023-04-25T05:41:57;6.90;68.60
51719;DHT22;37795;53.236;5.704;2023-04-25T05:44:23;6.80;68.50
51719;DHT22;37795;53.236;5.704;2023-04-25T05:46:49;6.60;68.70
51719;DHT22;37795;53.236;5.704;2023-04-25T05:49:14;6.50;68.90
51719;DHT22;37795;53.236;5.704;2023-04-25T05:51:40;6.30;69.00
51719;DHT22;37795;53.236;5.704;2023-04-25T05:54:06;6.10;68.70
51719;DHT22;37795;53.236;5.704;2023-04-25T05:56:31;6.00;69.00
51719;DHT22;37795;53.236;5.704;2023-04-25T05:58:57;6.00;69.10
51719;DHT22;37795;53.236;5.704;2023-04-25T06:01:23;6.00;69.10
51719;DHT22;37795;53.236;5.704;2023-04-25T06:03:49;6.00;69.50
51719;DHT22;37795;53.236;5.704;2023-04-25T06:06:15;6.10;69.70
51719;DHT22;37795;53.236;5.704;2023-04-25T06:08:41;6.20;70.00
51719;DHT22;37795;53.236;5.704;2023-04-25T06:11:06;6.40;70.40
51719;DHT22;37795;53.236;5.704;2023-04-25T06:13:33;6.40;70.60
51719;DHT22;37795;53.236;5.704;2023-04-25T06:15:59;6.50;70.80
51719;DHT22;37795;53.236;5.704;2023-04-25T06:18:24;6.60;70.80
51719;DHT22;37795;53.236;5.704;2023-04-25T06:20:50;6.70;70.80
51719;DHT22;37795;53.236;5.704;2023-04-25T06:23:16;6.80;70.30
51719;DHT22;37795;53.236;5.704;2023-04-25T06:25:41;7.20;69.80
51719;DHT22;37795;53.236;5.704;2023-04-25T06:28:07;7.40;68.20
51719;DHT22;37795;53.236;5.704;2023-04-25T06:30:33;7.30;67.50
51719;DHT22;37795;53.236;5.704;2023-04-25T06:32:59;7.20;69.90
51719;DHT22;37795;53.236;5.704;2023-04-25T06:35:24;7.10;70.70
51719;DHT22;37795;53.236;5.704;2023-04-25T06:37:50;6.90;71.30
51719;DHT22;37795;53.236;5.704;2023-04-25T06:40:16;6.80;71.90
51719;DHT22;37795;53.236;5.704;2023-04-25T06:42:43;6.80;72.20
51719;DHT22;37795;53.236;5.704;2023-04-25T06:45:09;6.80;72.10
51719;DHT22;37795;53.236;5.704;2023-04-25T06:47:34;7.00;72.20
51719;DHT22;37795;53.236;5.704;2023-04-25T06:56:39;7.70;66.40
51719;DHT22;37795;53.236;5.704;2023-04-25T06:59:05;7.30;66.90
51719;DHT22;37795;53.236;5.704;2023-04-25T07:01:30;7.20;67.00
51719;DHT22;37795;53.236;5.704;2023-04-25T07:03:56;7.20;67.70
51719;DHT22;37795;53.236;5.704;2023-04-25T07:06:22;7.30;67.80
51719;DHT22;37795;53.236;5.704;2023-04-25T07:08:47;7.30;68.00
51719;DHT22;37795;53.236;5.704;2023-04-25T07:11:13;7.30;68.30
51719;DHT22;37795;53.236;5.704;2023-04-25T07:13:39;7.20;68.40
51719;DHT22;37795;53.236;5.704;2023-04-25T07:16:04;7.20;67.90
51719;DHT22;37795;53.236;5.704;2023-04-25T07:18:30;7.50;68.20
51719;DHT22;37795;53.236;5.704;2023-04-25T07:20:56;7.70;67.40
51719;DHT22;37795;53.236;5.704;2023-04-25T07:23:22;7.90;67.30
51719;DHT22;37795;53.236;5.704;2023-04-25T07:25:47;7.90;67.80
51719;DHT22;37795;53.236;5.704;2023-04-25T07:28:13;7.90;67.00
51719;DHT22;37795;53.236;5.704;2023-04-25T07:30:39;7.80;66.90
51719;DHT22;37795;53.236;5.704;2023-04-25T07:33:04;7.90;67.20
51719;DHT22;37795;53.236;5.704;2023-04-25T07:35:30;8.10;67.30
51719;DHT22;37795;53.236;5.704;2023-04-25T07:37:56;8.00;66.70
51719;DHT22;37795;53.236;5.704;2023-04-25T07:40:21;8.20;65.90
51719;DHT22;37795;53.236;5.704;2023-04-25T07:42:47;8.20;65.60
51719;DHT22;37795;53.236;5.704;2023-04-25T07:45:13;8.30;65.90
51719;DHT22;37795;53.236;5.704;2023-04-25T07:47:39;8.30;65.80
51719;DHT22;37795;53.236;5.704;2023-04-25T07:50:05;8.30;65.50
51719;DHT22;37795;53.236;5.704;2023-04-25T07:52:31;8.50;64.70
51719;DHT22;37795;53.236;5.704;2023-04-25T07:54:57;8.50;64.00
51719;DHT22;37795;53.236;5.704;2023-04-25T07:57:23;8.60;64.50
51719;DHT22;37795;53.236;5.704;2023-04-25T07:59:50;8.60;64.00
51719;DHT22;37795;53.236;5.704;2023-04-25T08:02:15;8.60;64.30
51719;DHT22;37795;53.236;5.704;2023-04-25T08:04:41;8.50;64.30
51719;DHT22;37795;53.236;5.704;2023-04-25T08:07:07;8.60;64.30
51719;DHT22;37795;53.236;5.704;2023-04-25T08:09:32;8.70;64.30
51719;DHT22;37795;53.236;5.704;2023-04-25T08:12:02;8.80;65.00
51719;DHT22;37795;53.236;5.704;2023-04-25T08:14:29;8.70;64.60
51719;DHT22;37795;53.236;5.704;2023-04-25T08:17:03;8.70;65.00
51719;DHT22;37795;53.236;5.704;2023-04-25T08:19:30;8.60;65.40
51719;DHT22;37795;53.236;5.704;2023-04-25T08:21:56;8.40;66.60
51719;DHT22;37795;53.236;5.704;2023-04-25T08:24:22;8.50;65.70
51719;DHT22;37795;53.236;5.704;2023-04-25T08:26:48;8.30;66.40
51719;DHT22;37795;53.236;5.704;2023-04-25T08:29:14;8.30;66.60
51719;DHT22;37795;53.236;5.704;2023-04-25T08:31:40;8.20;65.80
51719;DHT22;37795;53.236;5.704;2023-04-25T08:34:06;8.40;65.70
51719;DHT22;37795;53.236;5.704;2023-04-25T08:36:32;8.80;65.00
51719;DHT22;37795;53.236;5.704;2023-04-25T08:38:58;9.00;64.80
51719;DHT22;37795;53.236;5.704;2023-04-25T08:41:24;9.10;63.60
51719;DHT22;37795;53.236;5.704;2023-04-25T08:43:51;9.20;62.70
51719;DHT22;37795;53.236;5.704;2023-04-25T08:46:18;9.40;62.80
51719;DHT22;37795;53.236;5.704;2023-04-25T08:48:45;9.50;62.40
51719;DHT22;37795;53.236;5.704;2023-04-25T08:51:21;9.60;61.90
51719;DHT22;37795;53.236;5.704;2023-04-25T08:53:51;9.80;61.50
51719;DHT22;37795;53.236;5.704;2023-04-25T08:56:17;9.90;62.60
51719;DHT22;37795;53.236;5.704;2023-04-25T08:58:48;9.60;61.30
51719;DHT22;37795;53.236;5.704;2023-04-25T09:01:15;9.50;61.80
51719;DHT22;37795;53.236;5.704;2023-04-25T09:03:41;9.70;62.00
51719;DHT22;37795;53.236;5.704;2023-04-25T09:06:09;9.30;63.80
51719;DHT22;37795;53.236;5.704;2023-04-25T09:08:39;8.60;65.10
51719;DHT22;37795;53.236;5.704;2023-04-25T09:11:06;8.60;66.40
51719;DHT22;37795;53.236;5.704;2023-04-25T09:13:32;8.60;66.70
51719;DHT22;37795;53.236;5.704;2023-04-25T09:15:58;8.70;65.70
51719;DHT22;37795;53.236;5.704;2023-04-25T09:18:28;8.70;64.10
51719;DHT22;37795;53.236;5.704;2023-04-25T09:20:56;8.80;65.20
51719;DHT22;37795;53.236;5.704;2023-04-25T09:23:23;8.80;63.80
51719;DHT22;37795;53.236;5.704;2023-04-25T09:25:50;8.50;62.20
51719;DHT22;37795;53.236;5.704;2023-04-25T09:28:23;8.30;62.90
51719;DHT22;37795;53.236;5.704;2023-04-25T09:30:55;8.00;64.10
51719;DHT22;37795;53.236;5.704;2023-04-25T09:33:27;8.10;64.80
51719;DHT22;37795;53.236;5.704;2023-04-25T09:35:54;8.10;64.80
51719;DHT22;37795;53.236;5.704;2023-04-25T09:38:22;8.40;67.40
51719;DHT22;37795;53.236;5.704;2023-04-25T09:40:47;8.80;66.10
51719;DHT22;37795;53.236;5.704;2023-04-25T09:43:22;8.80;65.50
51719;DHT22;37795;53.236;5.704;2023-04-25T09:45:49;8.90;66.40
51719;DHT22;37795;53.236;5.704;2023-04-25T09:48:24;9.10;66.30
51719;DHT22;37795;53.236;5.704;2023-04-25T09:53:35;9.00;64.30
51719;DHT22;37795;53.236;5.704;2023-04-25T09:56:04;8.70;64.70
51719;DHT22;37795;53.236;5.704;2023-04-25T09:58:31;8.90;66.00
51719;DHT22;37795;53.236;5.704;2023-04-25T10:01:00;9.10;65.90
51719;DHT22;37795;53.236;5.704;2023-04-25T10:03:32;9.30;65.70
51719;DHT22;37795;53.236;5.704;2023-04-25T10:06:03;9.50;64.30
51719;DHT22;37795;53.236;5.704;2023-04-25T10:08:35;9.70;62.40
51719;DHT22;37795;53.236;5.704;2023-04-25T10:11:07;10.00;62.20
51719;DHT22;37795;53.236;5.704;2023-04-25T10:13:34;10.20;61.10
51719;DHT22;37795;53.236;5.704;2023-04-25T10:16:03;10.20;61.40
51719;DHT22;37795;53.236;5.704;2023-04-25T10:18:30;10.40;61.20
51719;DHT22;37795;53.236;5.704;2023-04-25T10:20:56;10.50;61.50
51719;DHT22;37795;53.236;5.704;2023-04-25T10:23:23;10.60;61.10
51719;DHT22;37795;53.236;5.704;2023-04-25T10:25:50;10.20;61.20
51719;DHT22;37795;53.236;5.704;2023-04-25T10:28:17;9.80;62.20
51719;DHT22;37795;53.236;5.704;2023-04-25T10:33:36;8.70;63.10
51719;DHT22;37795;53.236;5.704;2023-04-25T10:36:34;8.40;65.70
51719;DHT22;37795;53.236;5.704;2023-04-25T10:39:04;8.70;64.90
51719;DHT22;37795;53.236;5.704;2023-04-25T10:41:48;9.50;63.10
51719;DHT22;37795;53.236;5.704;2023-04-25T10:44:17;10.00;62.50
51719;DHT22;37795;53.236;5.704;2023-04-25T10:46:44;9.80;62.90
51719;DHT22;37795;53.236;5.704;2023-04-25T10:56:38;10.20;61.70
51719;DHT22;37795;53.236;5.704;2023-04-25T10:59:14;10.10;62.00
51719;DHT22;37795;53.236;5.704;2023-04-25T11:01:56;10.40;61.30
51719;DHT22;37795;53.236;5.704;2023-04-25T11:04:30;10.50;61.70
51719;DHT22;37795;53.236;5.704;2023-04-25T11:09:29;10.90;62.60
51719;DHT22;37795;53.236;5.704;2023-04-25T11:11:59;10.90;61.30
51719;DHT22;37795;53.236;5.704;2023-04-25T11:14:25;10.50;62.60
51719;DHT22;37795;53.236;5.704;2023-04-25T11:16:58;10.40;61.70
51719;DHT22;37795;53.236;5.704;2023-04-25T11:19:25;10.40;63.80
51719;DHT22;37795;53.236;5.704;2023-04-25T11:21:58;10.20;62.10
51719;DHT22;37795;53.236;5.704;2023-04-25T11:24:32;10.10;62.00
51719;DHT22;37795;53.236;5.704;2023-04-25T11:26:59;10.70;62.20
51719;DHT22;37795;53.236;5.704;2023-04-25T11:29:28;10.70;62.40
51719;DHT22;37795;53.236;5.704;2023-04-25T11:31:55;10.70;62.50
51719;DHT22;37795;53.236;5.704;2023-04-25T11:34:26;10.60;62.30
51719;DHT22;37795;53.236;5.704;2023-04-25T11:36:53;11.00;61.40
51719;DHT22;37795;53.236;5.704;2023-04-25T11:39:20;11.10;62.80
51719;DHT22;37795;53.236;5.704;2023-04-25T11:41:46;10.80;60.30
51719;DHT22;37795;53.236;5.704;2023-04-25T11:44:12;11.00;60.50
51719;DHT22;37795;53.236;5.704;2023-04-25T11:46:40;11.30;60.70
51719;DHT22;37795;53.236;5.704;2023-04-25T11:49:06;11.20;60.40
51719;DHT22;37795;53.236;5.704;2023-04-25T11:51:38;11.20;60.60
51719;DHT22;37795;53.236;5.704;2023-04-25T11:54:05;11.10;60.20
51719;DHT22;37795;53.236;5.704;2023-04-25T11:56:31;10.90;59.80
51719;DHT22;37795;53.236;5.704;2023-04-25T11:59:03;10.50;60.20
51719;DHT22;37795;53.236;5.704;2023-04-25T12:01:31;10.70;59.70
51719;DHT22;37795;53.236;5.704;2023-04-25T12:03:57;11.30;59.00
51719;DHT22;37795;53.236;5.704;2023-04-25T12:06:29;11.40;57.70
51719;DHT22;37795;53.236;5.704;2023-04-25T12:09:08;11.50;56.90
51719;DHT22;37795;53.236;5.704;2023-04-25T12:11:41;11.50;56.80
51719;DHT22;37795;53.236;5.704;2023-04-25T12:14:07;11.60;56.60
51719;DHT22;37795;53.236;5.704;2023-04-25T12:16:44;11.80;56.90
51719;DHT22;37795;53.236;5.704;2023-04-25T12:19:13;12.00;58.10
51719;DHT22;37795;53.236;5.704;2023-04-25T12:21:38;12.20;57.20
51719;DHT22;37795;53.236;5.704;2023-04-25T12:27:03;12.20;58.20
51719;DHT22;37795;53.236;5.704;2023-04-25T12:29:31;12.00;57.30
51719;DHT22;37795;53.236;5.704;2023-04-25T12:31:57;12.30;57.70
51719;DHT22;37795;53.236;5.704;2023-04-25T12:34:24;11.80;57.80
51719;DHT22;37795;53.236;5.704;2023-04-25T12:36:51;11.80;56.80
51719;DHT22;37795;53.236;5.704;2023-04-25T12:39:21;11.80;56.80
51719;DHT22;37795;53.236;5.704;2023-04-25T12:41:52;12.20;56.60
51719;DHT22;37795;53.236;5.704;2023-04-25T12:44:21;12.40;55.80
51719;DHT22;37795;53.236;5.704;2023-04-25T12:46:47;12.50;56.00
51719;DHT22;37795;53.236;5.704;2023-04-25T12:49:13;12.10;55.70
51719;DHT22;37795;53.236;5.704;2023-04-25T12:51:40;11.90;55.80
51719;DHT22;37795;53.236;5.704;2023-04-25T12:54:07;11.70;57.50
51719;DHT22;37795;53.236;5.704;2023-04-25T12:56:33;11.20;57.70
51719;DHT22;37795;53.236;5.704;2023-04-25T12:58:59;11.10;58.00
51719;DHT22;37795;53.236;5.704;2023-04-25T13:01:25;11.70;57.60
51719;DHT22;37795;53.236;5.704;2023-04-25T13:03:52;11.50;56.60
51719;DHT22;37795;53.236;5.704;2023-04-25T13:06:19;11.60;56.40
51719;DHT22;37795;53.236;5.704;2023-04-25T13:08:46;11.80;54.80
51719;DHT22;37795;53.236;5.704;2023-04-25T13:11:12;11.50;55.50
51719;DHT22;37795;53.236;5.704;2023-04-25T13:13:38;11.30;58.00
51719;DHT22;37795;53.236;5.704;2023-04-25T13:16:05;11.70;56.50
51719;DHT22;37795;53.236;5.704;2023-04-25T13:18:31;11.80;56.70
51719;DHT22;37795;53.236;5.704;2023-04-25T13:20:57;11.90;56.30
51719;DHT22;37795;53.236;5.704;2023-04-25T13:23:25;11.80;55.60
51719;DHT22;37795;53.236;5.704;2023-04-25T13:25:51;12.00;55.90
51719;DHT22;37795;53.236;5.704;2023-04-25T13:28:17;12.20;55.40
51719;DHT22;37795;53.236;5.704;2023-04-25T13:30:43;12.10;56.10
51719;DHT22;37795;53.236;5.704;2023-04-25T13:33:09;12.30;56.50
51719;DHT22;37795;53.236;5.704;2023-04-25T13:35:37;12.40;57.40
51719;DHT22;37795;53.236;5.704;2023-04-25T13:38:03;12.60;56.90
51719;DHT22;37795;53.236;5.704;2023-04-25T13:40:29;12.70;58.10
51719;DHT22;37795;53.236;5.704;2023-04-25T13:42:55;12.30;55.90
51719;DHT22;37795;53.236;5.704;2023-04-25T13:45:22;11.70;58.00
51719;DHT22;37795;53.236;5.704;2023-04-25T13:47:47;11.40;57.30
51719;DHT22;37795;53.236;5.704;2023-04-25T13:50:13;11.10;59.20
51719;DHT22;37795;53.236;5.704;2023-04-25T13:52:40;11.00;59.60
51719;DHT22;37795;53.236;5.704;2023-04-25T13:55:07;11.50;58.90
51719;DHT22;37795;53.236;5.704;2023-04-25T13:57:34;12.10;58.50
51719;DHT22;37795;53.236;5.704;2023-04-25T14:00:00;12.30;57.00
51719;DHT22;37795;53.236;5.704;2023-04-25T14:02:30;11.90;57.70
51719;DHT22;37795;53.236;5.704;2023-04-25T14:04:56;11.80;57.80
51719;DHT22;37795;53.236;5.704;2023-04-25T14:07:21;12.00;56.60
51719;DHT22;37795;53.236;5.704;2023-04-25T14:09:47;12.10;57.20
51719;DHT22;37795;53.236;5.704;2023-04-25T14:12:13;12.30;56.50
51719;DHT22;37795;53.236;5.704;2023-04-25T14:14:38;11.90;58.20
51719;DHT22;37795;53.236;5.704;2023-04-25T14:17:04;11.60;57.90
51719;DHT22;37795;53.236;5.704;2023-04-25T14:19:30;11.60;58.10
51719;DHT22;37795;53.236;5.704;2023-04-25T14:21:56;11.10;58.90
51719;DHT22;37795;53.236;5.704;2023-04-25T14:24:21;10.70;60.20
51719;DHT22;37795;53.236;5.704;2023-04-25T14:26:47;10.70;60.90
51719;DHT22;37795;53.236;5.704;2023-04-25T14:29:13;10.70;59.70
51719;DHT22;37795;53.236;5.704;2023-04-25T14:31:39;10.50;60.00
51719;DHT22;37795;53.236;5.704;2023-04-25T14:34:05;10.60;59.90
51719;DHT22;37795;53.236;5.704;2023-04-25T14:36:31;10.70;61.80
51719;DHT22;37795;53.236;5.704;2023-04-25T14:38:58;11.00;60.20
51719;DHT22;37795;53.236;5.704;2023-04-25T14:41:24;11.30;60.80
51719;DHT22;37795;53.236;5.704;2023-04-25T14:43:51;11.30;58.40
51719;DHT22;37795;53.236;5.704;2023-04-25T14:46:18;11.20;59.00
51719;DHT22;37795;53.236;5.704;2023-04-25T14:48:45;10.90;60.90
51719;DHT22;37795;53.236;5.704;2023-04-25T14:51:11;10.80;60.40
51719;DHT22;37795;53.236;5.704;2023-04-25T14:53:37;11.30;59.80
51719;DHT22;37795;53.236;5.704;2023-04-25T14:56:03;11.60;58.40
51719;DHT22;37795;53.236;5.704;2023-04-25T14:58:28;11.20;57.70
51719;DHT22;37795;53.236;5.704;2023-04-25T15:00:54;11.10;58.40
51719;DHT22;37795;53.236;5.704;2023-04-25T15:03:20;11.10;58.40
51719;DHT22;37795;53.236;5.704;2023-04-25T15:05:46;10.80;59.50
51719;DHT22;37795;53.236;5.704;2023-04-25T15:08:12;10.70;60.70
51719;DHT22;37795;53.236;5.704;2023-04-25T15:10:37;10.60;59.30
51719;DHT22;37795;53.236;5.704;2023-04-25T15:13:03;10.50;59.80
51719;DHT22;37795;53.236;5.704;2023-04-25T15:15:29;10.40;59.20
51719;DHT22;37795;53.236;5.704;2023-04-25T15:17:57;10.30;59.80
51719;DHT22;37795;53.236;5.704;2023-04-25T15:20:23;10.50;60.60
51719;DHT22;37795;53.236;5.704;2023-04-25T15:22:48;10.60;60.70
51719;DHT22;37795;53.236;5.704;2023-04-25T15:25:15;10.40;61.10
51719;DHT22;37795;53.236;5.704;2023-04-25T15:27:43;10.30;61.30
51719;DHT22;37795;53.236;5.704;2023-04-25T15:30:15;10.60;61.80
51719;DHT22;37795;53.236;5.704;2023-04-25T15:32:42;10.60;61.00
51719;DHT22;37795;53.236;5.704;2023-04-25T15:35:08;10.40;60.90
51719;DHT22;37795;53.236;5.704;2023-04-25T15:37:35;10.20;60.30
51719;DHT22;37795;53.236;5.704;2023-04-25T15:40:05;10.40;59.90
51719;DHT22;37795;53.236;5.704;2023-04-25T15:42:45;10.30;59.70
51719;DHT22;37795;53.236;5.704;2023-04-25T15:45:23;10.20;59.80
51719;DHT22;37795;53.236;5.704;2023-04-25T15:47:54;10.40;59.00
51719;DHT22;37795;53.236;5.704;2023-04-25T15:50:21;10.50;59.10
51719;DHT22;37795;53.236;5.704;2023-04-25T15:52:49;10.30;58.60
51719;DHT22;37795;53.236;5.704;2023-04-25T15:55:15;10.10;59.60
51719;DHT22;37795;53.236;5.704;2023-04-25T15:57:42;10.20;59.50
51719;DHT22;37795;53.236;5.704;2023-04-25T16:00:08;10.30;59.20
51719;DHT22;37795;53.236;5.704;2023-04-25T16:02:43;10.30;60.20